Terminal Aerodrome Forecast
Issued by NWS

Home | Current Version | Previous Version | Text Only | Print | Product List | Glossary On
Versions: 1 2 3 4 5 6 7 8 9 10 11 12 13
000
FTUS45 KTFX 240520
TAFGTF
TAF
KGTF 240520Z 2406/2506 21015KT P6SM BKN200 WS020/26030KT
     FM241300 22020G35KT P6SM SCT150
     FM241700 25035G50KT P6SM SCT120
     FM250200 27025G40KT P6SM BKN070=

USA.gov is the U.S. government's official web portal to all federal, state and local government web resources and services.